createdAt,value
2018-11-04T00:00:56.486Z,20.10
2018-11-04T00:03:25.950Z,19.23
2018-11-04T00:05:55.005Z,21.00
2018-11-04T00:08:24.081Z,20.37
2018-11-04T00:10:53.090Z,20.20
2018-11-04T00:13:22.217Z,20.60
2018-11-04T00:15:51.158Z,19.20
2018-11-04T00:18:20.163Z,19.10
2018-11-04T00:20:49.217Z,18.27
2018-11-04T00:23:18.240Z,17.70
2018-11-04T00:25:47.265Z,18.40
2018-11-04T00:28:16.271Z,18.33
2018-11-04T00:30:45.287Z,17.63
2018-11-04T00:33:14.333Z,16.97
2018-11-04T00:35:43.359Z,18.23
2018-11-04T00:38:12.392Z,18.63
2018-11-04T00:40:41.411Z,18.63
2018-11-04T00:43:10.456Z,17.37
2018-11-04T00:45:39.533Z,19.07
2018-11-04T00:48:08.504Z,17.60
2018-11-04T00:50:37.546Z,17.10
2018-11-04T00:53:06.670Z,18.37
2018-11-04T00:55:35.708Z,18.20
2018-11-04T00:58:04.729Z,17.37
2018-11-04T01:00:33.746Z,18.57
2018-11-04T01:03:02.763Z,17.97
2018-11-04T01:05:31.807Z,17.67
2018-11-04T01:08:00.865Z,18.37
2018-11-04T01:10:29.899Z,16.97
2018-11-04T01:12:58.883Z,18.60
2018-11-04T01:15:27.947Z,18.13
2018-11-04T01:17:56.963Z,17.63
2018-11-04T01:20:25.953Z,17.47
2018-11-04T01:22:55.011Z,17.77
2018-11-04T01:25:24.061Z,17.37
2018-11-04T01:27:53.078Z,16.70
2018-11-04T01:30:22.140Z,16.93
2018-11-04T01:32:51.103Z,16.43
2018-11-04T01:35:20.106Z,17.00
2018-11-04T01:37:49.139Z,18.13
2018-11-04T01:40:18.208Z,17.43
2018-11-04T01:42:47.218Z,17.70
2018-11-04T01:45:16.257Z,17.57
2018-11-04T01:47:45.250Z,16.93
2018-11-04T01:50:14.868Z,16.30
2018-11-04T01:52:43.935Z,17.17
2018-11-04T01:55:13.379Z,16.73
2018-11-04T01:57:42.402Z,17.57
2018-11-04T02:00:15.039Z,17.07
2018-11-04T02:02:44.607Z,17.47
2018-11-04T02:05:13.960Z,17.50
2018-11-04T02:07:42.993Z,17.40
2018-11-04T02:10:13.292Z,18.43
2018-11-04T02:12:42.265Z,18.00
2018-11-04T02:15:12.457Z,17.70
2018-11-04T02:17:41.476Z,17.93
2018-11-04T02:20:11.972Z,16.80
2018-11-04T02:22:41.869Z,18.03
2018-11-04T02:25:12.275Z,16.70
2018-11-04T02:27:42.286Z,17.70
2018-11-04T02:30:13.744Z,16.90
2018-11-04T02:32:43.740Z,16.83
2018-11-04T02:35:13.344Z,17.07
2018-11-04T02:37:42.414Z,16.00
2018-11-04T02:40:12.155Z,16.33
2018-11-04T02:42:41.178Z,17.00
2018-11-04T02:45:10.644Z,15.40
2018-11-04T02:47:39.716Z,16.73
2018-11-04T02:50:09.572Z,16.93
2018-11-04T02:52:38.700Z,17.57
2018-11-04T02:55:08.174Z,17.07
2018-11-04T02:57:37.842Z,16.53
2018-11-04T03:00:10.484Z,16.83
2018-11-04T03:02:39.588Z,17.20
2018-11-04T03:05:09.318Z,16.93
2018-11-04T03:07:38.504Z,16.87
2018-11-04T03:10:08.246Z,17.23
2018-11-04T03:12:37.356Z,17.53
2018-11-04T03:15:06.491Z,16.67
2018-11-04T03:17:35.666Z,17.10
2018-11-04T03:20:04.799Z,16.50
2018-11-04T03:22:33.797Z,16.80
2018-11-04T03:25:02.847Z,16.60
2018-11-04T03:27:31.947Z,16.47
2018-11-04T03:30:00.963Z,16.73
2018-11-04T03:32:29.983Z,17.73
2018-11-04T03:34:59.004Z,16.40
2018-11-04T03:37:28.015Z,17.83
2018-11-04T03:39:57.042Z,16.77
2018-11-04T03:42:26.082Z,17.47
2018-11-04T03:44:55.127Z,17.07
2018-11-04T03:47:24.133Z,17.73
2018-11-04T03:49:53.152Z,16.77
2018-11-04T03:52:22.167Z,17.03
2018-11-04T03:54:51.167Z,17.13
2018-11-04T03:57:20.191Z,16.20
2018-11-04T03:59:49.214Z,17.17
2018-11-04T04:02:18.233Z,16.80
2018-11-04T04:04:47.238Z,17.33
2018-11-04T04:07:16.250Z,16.67
2018-11-04T04:09:45.272Z,17.73
2018-11-04T04:12:14.313Z,16.40
2018-11-04T04:14:43.417Z,17.70
2018-11-04T04:17:12.419Z,17.70
2018-11-04T04:19:41.542Z,17.00
2018-11-04T04:22:13.389Z,16.87
2018-11-04T04:24:42.401Z,17.20
2018-11-04T04:27:11.411Z,16.87
2018-11-04T04:29:40.424Z,17.57
2018-11-04T04:32:09.465Z,17.90
2018-11-04T04:34:38.567Z,17.40
2018-11-04T04:37:07.598Z,16.90
2018-11-04T04:39:36.617Z,17.40
2018-11-04T04:42:05.881Z,17.87
2018-11-04T04:44:34.895Z,16.90
2018-11-04T04:47:03.934Z,16.70
2018-11-04T04:49:32.972Z,17.90
2018-11-04T04:52:02.028Z,18.67
2018-11-04T04:54:31.057Z,17.73
2018-11-04T04:57:00.088Z,17.93
2018-11-04T04:59:29.155Z,18.60
2018-11-04T05:01:58.175Z,17.33
2018-11-04T05:04:27.191Z,17.03
2018-11-04T05:06:56.194Z,18.27
2018-11-04T05:09:25.257Z,18.37
2018-11-04T05:11:54.271Z,19.43
2018-11-04T05:14:23.271Z,19.00
2018-11-04T05:16:52.580Z,18.77
2018-11-04T05:19:21.589Z,19.77
2018-11-04T05:21:50.634Z,20.00
2018-11-04T05:24:19.661Z,21.40
2018-11-04T05:26:48.667Z,19.57
2018-11-04T05:29:17.723Z,19.57
2018-11-04T05:31:46.842Z,19.97
2018-11-04T05:34:16.228Z,19.43
2018-11-04T05:36:45.255Z,19.30
2018-11-04T05:39:14.245Z,18.33
2018-11-04T05:41:43.264Z,19.23
2018-11-04T05:44:12.300Z,19.03
2018-11-04T05:46:41.362Z,18.93
2018-11-04T05:49:10.355Z,19.20
2018-11-04T05:51:39.350Z,18.27
2018-11-04T05:54:08.346Z,19.73
2018-11-04T05:56:37.342Z,20.00
2018-11-04T05:59:06.393Z,19.80
2018-11-04T06:01:35.419Z,18.17
2018-11-04T06:04:04.443Z,17.83
2018-11-04T06:06:33.455Z,17.50
2018-11-04T06:09:02.484Z,17.63
2018-11-04T06:11:31.527Z,18.23
2018-11-04T06:14:00.555Z,18.20
2018-11-04T06:16:29.589Z,18.20
2018-11-04T06:18:58.677Z,18.27
2018-11-04T06:21:27.717Z,17.23
2018-11-04T06:23:56.993Z,17.43
2018-11-04T06:26:26.028Z,18.07
2018-11-04T06:28:55.065Z,16.97
2018-11-04T06:31:24.067Z,17.20
2018-11-04T06:33:53.085Z,17.40
2018-11-04T06:36:22.141Z,18.03
2018-11-04T06:38:51.169Z,17.37
2018-11-04T06:41:20.187Z,17.53
2018-11-04T06:43:49.219Z,17.00
2018-11-04T06:46:18.235Z,16.70
2018-11-04T06:48:47.267Z,16.73
2018-11-04T06:51:16.311Z,16.90
2018-11-04T06:53:45.362Z,17.00
2018-11-04T06:56:14.357Z,16.17
2018-11-04T06:58:43.373Z,16.60
2018-11-04T07:01:12.399Z,16.67
2018-11-04T07:03:51.259Z,16.60
2018-11-04T07:06:20.298Z,17.27
2018-11-04T07:08:49.306Z,17.97
2018-11-04T07:11:18.328Z,15.57
2018-11-04T07:13:47.418Z,17.03
2018-11-04T07:16:16.435Z,16.63
2018-11-04T07:18:45.478Z,16.83
2018-11-04T07:21:14.529Z,16.13
2018-11-04T07:23:43.580Z,16.53
2018-11-04T07:26:12.614Z,17.03
2018-11-04T07:28:41.658Z,18.13
2018-11-04T07:31:10.695Z,17.80
2018-11-04T07:33:39.710Z,17.63
2018-11-04T07:36:08.774Z,17.37
2018-11-04T07:38:37.807Z,18.10
2018-11-04T07:41:06.860Z,16.77
2018-11-04T07:43:35.865Z,16.93
2018-11-04T07:46:05.219Z,17.07
2018-11-04T07:48:34.296Z,17.93
2018-11-04T07:51:03.304Z,17.07
2018-11-04T07:53:32.336Z,22.90
2018-11-04T07:56:01.399Z,20.50
2018-11-04T07:58:30.420Z,22.40
2018-11-04T08:00:59.524Z,24.47
2018-11-04T08:03:28.539Z,24.10
2018-11-04T08:05:57.598Z,22.73
2018-11-04T08:08:26.638Z,22.57
2018-11-04T08:10:55.678Z,22.37
2018-11-04T08:13:24.776Z,21.63
2018-11-04T08:15:53.773Z,20.93
2018-11-04T08:18:22.796Z,19.97
2018-11-04T08:20:51.807Z,19.50
2018-11-04T08:23:20.860Z,19.63
2018-11-04T08:25:49.883Z,21.00
2018-11-04T08:28:18.861Z,17.87
2018-11-04T08:30:47.899Z,19.53
2018-11-04T08:33:16.931Z,18.83
2018-11-04T08:35:45.955Z,17.87
2018-11-04T08:38:15.056Z,18.93
2018-11-04T08:40:44.088Z,17.47
2018-11-04T08:43:13.135Z,19.37
2018-11-04T08:45:42.173Z,19.87
2018-11-04T08:48:11.172Z,19.53
2018-11-04T08:50:40.201Z,19.30
2018-11-04T08:53:09.245Z,19.20
2018-11-04T08:55:38.239Z,18.97
2018-11-04T08:58:07.295Z,21.07
2018-11-04T09:00:36.307Z,19.00
2018-11-04T09:03:05.513Z,19.43
2018-11-04T09:05:34.562Z,20.23
2018-11-04T09:08:03.595Z,21.20
2018-11-04T09:10:32.655Z,21.13
2018-11-04T09:13:02.708Z,21.33
2018-11-04T09:15:31.861Z,22.20
2018-11-04T09:18:00.893Z,21.97
2018-11-04T09:20:29.928Z,21.90
2018-11-04T09:22:58.965Z,21.43
2018-11-04T09:25:28.046Z,23.17
2018-11-04T09:27:57.085Z,20.37
2018-11-04T09:30:26.117Z,20.87
2018-11-04T09:32:55.160Z,21.33
2018-11-04T09:35:24.255Z,21.60
2018-11-04T09:37:53.199Z,22.17
2018-11-04T09:40:22.228Z,21.50
2018-11-04T09:42:51.290Z,20.83
2018-11-04T09:45:20.309Z,21.27
2018-11-04T09:47:50.046Z,21.03
2018-11-04T09:50:19.105Z,21.17
2018-11-04T09:52:48.118Z,20.60
2018-11-04T09:55:17.170Z,20.53
2018-11-04T09:57:46.242Z,20.03
2018-11-04T10:00:15.276Z,19.97
2018-11-04T10:02:44.331Z,18.20
2018-11-04T10:05:13.374Z,18.63
2018-11-04T10:07:42.427Z,18.60
2018-11-04T10:10:13.010Z,19.60
2018-11-04T10:12:43.290Z,18.83
2018-11-04T10:15:12.348Z,18.47
2018-11-04T10:17:41.786Z,19.17
2018-11-04T10:20:11.928Z,19.53
2018-11-04T10:22:41.405Z,19.40
2018-11-04T10:25:11.650Z,19.47
2018-11-04T10:27:41.434Z,19.30
2018-11-04T10:30:13.129Z,18.97
2018-11-04T10:32:42.133Z,19.40
2018-11-04T10:35:11.456Z,18.73
2018-11-04T10:37:41.370Z,20.10
2018-11-04T10:40:12.248Z,19.13
2018-11-04T10:42:41.282Z,19.90
2018-11-04T10:45:11.246Z,20.03
2018-11-04T10:47:40.252Z,19.53
2018-11-04T10:50:10.764Z,20.33
2018-11-04T10:52:39.824Z,20.87
2018-11-04T10:55:10.059Z,20.97
2018-11-04T10:57:39.194Z,19.97
2018-11-04T11:00:15.108Z,21.17
2018-11-04T11:02:44.600Z,19.97
2018-11-04T11:05:13.675Z,19.97
2018-11-04T11:07:42.714Z,18.63
2018-11-04T11:10:11.989Z,21.20
2018-11-04T11:12:41.021Z,20.87
2018-11-04T11:15:10.997Z,21.47
2018-11-04T11:17:40.292Z,22.30
2018-11-04T11:20:10.477Z,24.23
2018-11-04T11:22:39.730Z,22.57
2018-11-04T11:25:09.310Z,23.30
2018-11-04T11:27:38.429Z,22.17
2018-11-04T11:30:07.607Z,21.87
2018-11-04T11:32:36.646Z,21.87
2018-11-04T11:35:06.749Z,23.13
2018-11-04T11:37:35.908Z,22.83
2018-11-04T11:40:05.378Z,23.53
2018-11-04T11:42:34.418Z,22.30
2018-11-04T11:45:03.491Z,23.20
2018-11-04T11:47:32.586Z,22.67
2018-11-04T11:50:01.666Z,22.13
2018-11-04T11:52:30.738Z,22.80
2018-11-04T11:54:59.736Z,22.77
2018-11-04T11:57:28.792Z,25.40
2018-11-04T11:59:57.865Z,24.73
2018-11-04T12:02:26.880Z,24.23
2018-11-04T12:04:56.555Z,24.60
2018-11-04T12:07:25.571Z,25.50
2018-11-04T12:09:54.681Z,23.70
2018-11-04T12:12:23.727Z,25.27
2018-11-04T12:14:52.759Z,25.70
2018-11-04T12:17:21.817Z,25.63
2018-11-04T12:19:50.909Z,25.57
2018-11-04T12:22:20.139Z,26.10
2018-11-04T12:24:49.220Z,24.93
2018-11-04T12:27:18.266Z,25.47
2018-11-04T12:29:47.293Z,26.17
2018-11-04T12:32:16.326Z,24.10
2018-11-04T12:34:45.323Z,25.40
2018-11-04T12:37:14.395Z,25.90
2018-11-04T12:39:43.445Z,26.50
2018-11-04T12:42:12.478Z,25.77
2018-11-04T12:44:41.527Z,24.83
2018-11-04T12:47:10.590Z,25.27
2018-11-04T12:49:39.621Z,23.83
2018-11-04T12:52:08.719Z,25.90
2018-11-04T12:54:37.688Z,25.77
2018-11-04T12:57:06.799Z,25.17
2018-11-04T12:59:35.823Z,25.30
2018-11-04T13:02:05.024Z,25.90
2018-11-04T13:04:34.009Z,26.07
2018-11-04T13:07:03.073Z,23.83
2018-11-04T13:09:32.107Z,24.73
2018-11-04T13:12:03.146Z,25.30
2018-11-04T13:14:32.181Z,25.37
2018-11-04T13:17:01.222Z,25.07
2018-11-04T13:19:30.227Z,25.30
2018-11-04T13:21:59.276Z,25.67
2018-11-04T13:24:28.355Z,25.23
2018-11-04T13:26:57.413Z,26.17
2018-11-04T13:29:26.408Z,26.63
2018-11-04T13:31:55.700Z,26.10
2018-11-04T13:34:25.383Z,26.40
2018-11-04T13:36:54.400Z,24.37
2018-11-04T13:39:23.467Z,24.20
2018-11-04T13:41:54.062Z,25.60
2018-11-04T13:44:23.138Z,25.17
2018-11-04T13:46:52.173Z,25.13
2018-11-04T13:49:21.246Z,23.67
2018-11-04T13:51:50.231Z,24.90
2018-11-04T13:54:19.288Z,24.10
2018-11-04T13:56:48.310Z,24.73
2018-11-04T13:59:17.358Z,24.33
2018-11-04T14:01:46.402Z,24.07
2018-11-04T14:04:15.467Z,24.47
2018-11-04T14:06:44.492Z,23.93
2018-11-04T14:09:13.520Z,25.40
2018-11-04T14:11:42.635Z,23.93
2018-11-04T14:14:11.673Z,25.53
2018-11-04T14:16:40.756Z,24.90
2018-11-04T14:19:09.793Z,24.27
2018-11-04T14:21:38.858Z,23.50
2018-11-04T14:24:07.884Z,23.77
2018-11-04T14:26:36.892Z,22.23
2018-11-04T14:29:06.099Z,23.40
2018-11-04T14:31:35.137Z,23.43
2018-11-04T14:34:04.282Z,23.13
2018-11-04T14:36:33.349Z,21.93
2018-11-04T14:39:02.367Z,21.07
2018-11-04T14:41:31.421Z,23.20
2018-11-04T14:44:00.522Z,21.70
2018-11-04T14:46:29.547Z,20.63
2018-11-04T14:48:58.607Z,22.07
2018-11-04T14:51:27.617Z,21.73
2018-11-04T14:53:56.690Z,21.77
2018-11-04T14:56:27.221Z,21.57
2018-11-04T14:58:56.770Z,21.67
2018-11-04T15:01:26.052Z,21.23
2018-11-04T15:03:55.123Z,21.20
2018-11-04T15:06:24.993Z,21.80
2018-11-04T15:08:54.283Z,20.57
2018-11-04T15:11:23.304Z,21.20
2018-11-04T15:13:52.333Z,20.60
2018-11-04T15:16:21.381Z,20.87
2018-11-04T15:18:50.535Z,21.27
2018-11-04T15:21:19.499Z,20.47
2018-11-04T15:23:48.519Z,20.17
2018-11-04T15:26:17.627Z,21.00
2018-11-04T15:28:46.681Z,20.60
2018-11-04T15:31:15.829Z,21.03
2018-11-04T15:33:44.834Z,20.63
2018-11-04T15:36:13.886Z,21.03
2018-11-04T15:38:42.955Z,20.47
2018-11-04T15:41:11.981Z,20.70
2018-11-04T15:43:41.067Z,20.80
2018-11-04T15:46:10.094Z,20.63
2018-11-04T15:48:39.174Z,19.40
2018-11-04T15:51:08.262Z,20.63
2018-11-04T15:53:37.304Z,19.50
2018-11-04T15:56:07.028Z,24.40
2018-11-04T15:58:36.194Z,24.17
2018-11-04T16:01:05.383Z,23.47
2018-11-04T16:03:34.427Z,26.13
2018-11-04T16:06:03.659Z,25.57
2018-11-04T16:08:32.664Z,23.00
2018-11-04T16:11:01.747Z,22.20
2018-11-04T16:13:30.831Z,23.23
2018-11-04T16:15:59.860Z,26.03
2018-11-04T16:18:28.905Z,26.70
2018-11-04T16:20:57.969Z,27.67
2018-11-04T16:23:26.962Z,27.33
2018-11-04T16:25:56.079Z,28.03
2018-11-04T16:28:26.962Z,26.97
2018-11-04T16:30:56.016Z,28.90
2018-11-04T16:33:25.131Z,27.93
2018-11-04T16:35:54.064Z,27.03
2018-11-04T16:38:23.101Z,26.53
2018-11-04T16:40:52.125Z,28.50
2018-11-04T16:43:21.231Z,27.77
2018-11-04T16:45:50.255Z,27.83
2018-11-04T16:48:19.934Z,26.00
2018-11-04T16:50:48.967Z,28.03
2018-11-04T16:53:18.053Z,27.17
2018-11-04T16:55:47.194Z,29.27
2018-11-04T16:58:16.167Z,28.27
2018-11-04T17:00:45.240Z,27.67
2018-11-04T17:03:14.267Z,29.37
2018-11-04T17:05:43.487Z,27.10
2018-11-04T17:08:12.314Z,28.63
2018-11-04T17:10:41.397Z,26.53
2018-11-04T17:13:10.470Z,27.37
2018-11-04T17:15:39.523Z,28.43
2018-11-04T17:18:08.604Z,28.07
2018-11-04T17:20:37.573Z,29.83
2018-11-04T17:23:06.658Z,26.87
2018-11-04T17:25:35.652Z,29.50
2018-11-04T17:28:04.805Z,29.83
2018-11-04T17:30:33.818Z,30.57
2018-11-04T17:33:02.834Z,30.57
2018-11-04T17:35:31.873Z,29.77
2018-11-04T17:38:00.949Z,29.17
2018-11-04T17:40:29.974Z,30.00
2018-11-04T17:42:58.999Z,29.77
2018-11-04T17:45:28.092Z,28.70
2018-11-04T17:47:57.074Z,31.47
2018-11-04T17:50:26.081Z,29.73
2018-11-04T17:52:56.482Z,30.13
2018-11-04T17:55:25.534Z,28.20
2018-11-04T17:57:54.573Z,29.27
2018-11-04T18:00:23.624Z,27.90
2018-11-04T18:02:52.676Z,26.97
2018-11-04T18:05:21.730Z,27.73
2018-11-04T18:07:50.774Z,29.33
2018-11-04T18:10:19.862Z,30.13
2018-11-04T18:12:48.948Z,32.07
2018-11-04T18:15:18.021Z,31.67
2018-11-04T18:17:47.070Z,29.17
2018-11-04T18:20:16.108Z,29.80
2018-11-04T18:22:45.145Z,29.73
2018-11-04T18:25:14.150Z,33.17
2018-11-04T18:27:43.216Z,34.33
2018-11-04T18:30:14.086Z,34.20
2018-11-04T18:32:43.686Z,34.63
2018-11-04T18:35:12.700Z,34.43
2018-11-04T18:37:41.866Z,35.57
2018-11-04T18:40:13.037Z,32.63
2018-11-04T18:42:42.498Z,32.27
2018-11-04T18:45:12.804Z,29.57
2018-11-04T18:47:41.946Z,30.70
2018-11-04T18:50:12.228Z,26.73
2018-11-04T18:52:41.514Z,28.50
2018-11-04T18:55:11.652Z,31.00
2018-11-04T18:57:41.568Z,31.07
2018-11-04T19:00:13.310Z,30.53
2018-11-04T19:02:42.484Z,34.43
2018-11-04T19:05:11.594Z,33.07
2018-11-04T19:07:40.611Z,29.50
2018-11-04T19:10:12.173Z,31.23
2018-11-04T19:12:41.424Z,29.60
2018-11-04T19:15:10.465Z,29.63
2018-11-04T19:17:39.481Z,29.90
2018-11-04T19:20:10.278Z,28.57
2018-11-04T19:22:39.765Z,29.57
2018-11-04T19:25:10.009Z,29.70
2018-11-04T19:27:39.361Z,29.43
2018-11-04T19:30:10.937Z,28.80
2018-11-04T19:32:40.032Z,27.07
2018-11-04T19:35:11.269Z,29.40
2018-11-04T19:37:40.673Z,30.37
2018-11-04T19:40:13.570Z,29.97
2018-11-04T19:42:42.707Z,31.87
2018-11-04T19:45:11.695Z,33.77
2018-11-04T19:47:40.885Z,31.37
2018-11-04T19:50:11.435Z,32.27
2018-11-04T19:52:40.681Z,37.43
2018-11-04T19:55:10.569Z,38.30
2018-11-04T19:57:39.656Z,34.07
2018-11-04T20:00:10.023Z,36.80
2018-11-04T20:02:39.039Z,33.93
2018-11-04T20:05:09.457Z,29.73
2018-11-04T20:07:38.423Z,27.43
2018-11-04T20:10:09.946Z,26.80
2018-11-04T20:12:44.227Z,26.07
2018-11-04T20:15:13.283Z,28.10
2018-11-04T20:17:42.631Z,28.03
2018-11-04T20:20:27.395Z,27.03
2018-11-04T20:22:56.437Z,27.57
2018-11-04T20:25:30.711Z,28.10
2018-11-04T20:27:59.761Z,27.10
2018-11-04T20:30:30.788Z,25.93
2018-11-04T20:33:03.137Z,25.43
2018-11-04T20:35:32.216Z,25.83
2018-11-04T20:38:01.256Z,25.77
2018-11-04T20:40:35.555Z,23.97
2018-11-04T20:43:04.620Z,24.60
2018-11-04T20:45:33.729Z,24.53
2018-11-04T20:48:08.163Z,24.20
2018-11-04T20:50:42.656Z,26.97
2018-11-04T20:53:11.720Z,24.50
2018-11-04T20:55:46.053Z,25.73
2018-11-04T20:58:16.670Z,25.50
2018-11-04T21:00:45.678Z,25.23
2018-11-04T21:03:14.735Z,26.80
2018-11-04T21:05:43.839Z,27.17
2018-11-04T21:08:13.558Z,25.00
2018-11-04T21:10:42.574Z,27.73
2018-11-04T21:13:11.702Z,27.07
2018-11-04T21:15:40.750Z,26.70
2018-11-04T21:18:09.811Z,27.97
2018-11-04T21:20:38.858Z,29.83
2018-11-04T21:23:07.907Z,28.47
2018-11-04T21:25:37.065Z,27.30
2018-11-04T21:28:06.235Z,29.33
2018-11-04T21:30:35.084Z,28.23
2018-11-04T21:33:04.136Z,28.93
2018-11-04T21:35:33.205Z,26.63
2018-11-04T21:38:02.446Z,28.33
2018-11-04T21:40:31.304Z,28.30
2018-11-04T21:43:00.656Z,27.87
2018-11-04T21:45:29.659Z,28.77
2018-11-04T21:47:58.693Z,28.33
2018-11-04T21:50:27.741Z,27.37
2018-11-04T21:52:56.774Z,26.10
2018-11-04T21:55:25.963Z,27.13
2018-11-04T21:57:55.111Z,28.13
2018-11-04T22:00:24.792Z,29.63
2018-11-04T22:02:53.960Z,28.47
2018-11-04T22:05:22.853Z,26.57
2018-11-04T22:07:51.883Z,26.57
2018-11-04T22:10:20.981Z,27.23
2018-11-04T22:12:50.033Z,27.13
2018-11-04T22:15:19.064Z,24.60
2018-11-04T22:17:49.120Z,25.43
2018-11-04T22:20:18.253Z,28.63
2018-11-04T22:22:47.237Z,25.97
2018-11-04T22:25:16.259Z,24.87
2018-11-04T22:27:45.267Z,23.90
2018-11-04T22:30:14.303Z,25.93
2018-11-04T22:32:43.348Z,22.90
2018-11-04T22:35:12.570Z,24.70
2018-11-04T22:37:42.268Z,25.60
2018-11-04T22:40:12.111Z,23.50
2018-11-04T22:42:41.983Z,24.43
2018-11-04T22:45:12.131Z,23.70
2018-11-04T22:47:42.337Z,25.77
2018-11-04T22:50:14.874Z,25.20
2018-11-04T22:52:44.221Z,27.27
2018-11-04T22:55:14.134Z,26.27
2018-11-04T22:57:43.797Z,27.13
2018-11-04T23:00:46.267Z,25.20
2018-11-04T23:03:15.291Z,27.33
2018-11-04T23:05:44.344Z,25.50
2018-11-04T23:08:13.382Z,25.33
2018-11-04T23:10:42.380Z,24.77
2018-11-04T23:13:11.402Z,26.33
2018-11-04T23:15:41.296Z,24.73
2018-11-04T23:18:11.188Z,24.93
2018-11-04T23:20:40.236Z,26.27
2018-11-04T23:23:10.339Z,26.40
2018-11-04T23:25:39.373Z,24.77
2018-11-04T23:28:08.550Z,25.63
2018-11-04T23:30:37.575Z,24.60
2018-11-04T23:33:06.617Z,27.77
2018-11-04T23:35:35.640Z,26.03
2018-11-04T23:38:04.709Z,24.43
2018-11-04T23:40:34.443Z,24.67
2018-11-04T23:43:03.508Z,25.27
2018-11-04T23:45:32.532Z,26.30
2018-11-04T23:48:01.558Z,24.80
2018-11-04T23:50:30.574Z,24.17
2018-11-04T23:53:00.524Z,23.13
2018-11-04T23:55:29.520Z,24.97
2018-11-04T23:57:58.538Z,24.63
